createdAt,value
2022-12-03T00:00:12.108Z,42.28
2022-12-03T00:03:15.183Z,41.00
2022-12-03T00:06:17.984Z,37.83
2022-12-03T00:09:19.980Z,40.70
2022-12-03T00:12:21.977Z,42.17
2022-12-03T00:15:23.980Z,39.25
2022-12-03T00:18:26.028Z,38.78
2022-12-03T00:21:28.060Z,41.85
2022-12-03T00:24:30.070Z,41.37
2022-12-03T00:27:32.084Z,39.25
2022-12-03T00:30:34.752Z,36.08
2022-12-03T00:33:36.724Z,37.17
2022-12-03T00:36:38.703Z,35.83
2022-12-03T00:39:40.696Z,41.15
2022-12-03T00:42:42.719Z,37.67
2022-12-03T00:45:44.672Z,36.63
2022-12-03T00:48:46.618Z,38.17
2022-12-03T00:51:48.704Z,34.88
2022-12-03T00:54:50.912Z,31.27
2022-12-03T00:57:53.120Z,40.17
2022-12-03T01:00:55.151Z,38.85
2022-12-03T01:03:57.183Z,36.13
2022-12-03T01:06:59.403Z,38.08
2022-12-03T01:10:01.435Z,31.77
2022-12-03T01:13:03.428Z,32.53
2022-12-03T01:16:05.466Z,34.92
2022-12-03T01:19:08.704Z,32.65
2022-12-03T01:22:10.746Z,36.17
2022-12-03T01:25:12.775Z,33.77
2022-12-03T01:28:14.818Z,35.03
2022-12-03T01:31:35.193Z,34.25
2022-12-03T01:34:37.321Z,34.47
2022-12-03T01:37:39.355Z,36.10
2022-12-03T01:40:41.450Z,33.00
2022-12-03T01:43:43.614Z,37.05
2022-12-03T01:46:46.371Z,36.33
2022-12-03T01:49:54.068Z,36.80
2022-12-03T01:52:58.083Z,32.90
2022-12-03T01:56:00.070Z,36.03
2022-12-03T01:59:02.165Z,34.90
2022-12-03T02:02:14.468Z,37.90
2022-12-03T02:05:18.540Z,33.90
2022-12-03T02:08:46.655Z,40.65
2022-12-03T02:11:49.659Z,33.55
2022-12-03T02:14:52.528Z,37.40
2022-12-03T02:17:55.522Z,39.45
2022-12-03T02:21:00.583Z,33.58
2022-12-03T02:24:17.557Z,39.92
2022-12-03T02:27:19.574Z,38.20
2022-12-03T02:30:23.899Z,36.22
2022-12-03T02:33:25.932Z,36.55
2022-12-03T02:36:27.976Z,32.87
2022-12-03T02:39:30.070Z,37.05
2022-12-03T02:42:38.040Z,40.80
2022-12-03T02:45:41.615Z,42.35
2022-12-03T02:48:43.585Z,32.83
2022-12-03T02:51:45.608Z,35.33
2022-12-03T02:54:48.111Z,38.47
2022-12-03T02:57:50.355Z,38.70
2022-12-03T03:00:54.100Z,35.70
2022-12-03T03:03:56.578Z,37.63
2022-12-03T03:06:58.794Z,39.17
2022-12-03T03:10:01.083Z,35.70
2022-12-03T03:13:04.236Z,36.92
2022-12-03T03:16:07.267Z,43.33
2022-12-03T03:19:12.199Z,36.53
2022-12-03T03:22:14.189Z,37.50
2022-12-03T03:25:18.224Z,39.70
2022-12-03T03:28:20.384Z,36.57
2022-12-03T03:31:23.790Z,38.67
2022-12-03T03:34:26.892Z,42.42
2022-12-03T03:37:29.203Z,34.20
2022-12-03T03:40:31.327Z,39.47
2022-12-03T03:43:34.978Z,43.08
2022-12-03T03:46:37.469Z,41.28
2022-12-03T03:49:39.721Z,43.58
2022-12-03T03:52:42.252Z,41.92
2022-12-03T03:55:44.428Z,38.20
2022-12-03T03:58:46.438Z,40.30
2022-12-03T04:01:48.813Z,43.85
2022-12-03T04:04:51.934Z,41.55
2022-12-03T04:07:54.309Z,37.73
2022-12-03T04:11:14.873Z,41.75
2022-12-03T04:14:16.849Z,42.67
2022-12-03T04:17:19.439Z,37.60
2022-12-03T04:20:21.457Z,45.05
2022-12-03T04:23:29.244Z,45.08
2022-12-03T04:26:51.167Z,44.97
2022-12-03T04:29:53.470Z,41.47
2022-12-03T04:33:15.775Z,42.90
2022-12-03T04:36:17.735Z,44.88
2022-12-03T04:39:19.800Z,41.03
2022-12-03T04:42:22.028Z,44.20
2022-12-03T04:45:24.045Z,40.38
2022-12-03T04:48:26.085Z,44.10
2022-12-03T04:51:28.111Z,42.38
2022-12-03T04:54:30.345Z,40.97
2022-12-03T04:57:32.879Z,45.60
2022-12-03T05:00:34.952Z,42.17
2022-12-03T05:03:37.011Z,42.38
2022-12-03T05:06:39.047Z,43.42
2022-12-03T05:09:41.627Z,44.07
2022-12-03T05:12:43.616Z,44.72
2022-12-03T05:15:45.637Z,49.83
2022-12-03T05:18:47.624Z,44.85
2022-12-03T05:21:49.610Z,50.38
2022-12-03T05:24:51.860Z,48.20
2022-12-03T05:27:54.161Z,47.15
2022-12-03T05:30:56.249Z,42.77
2022-12-03T05:33:58.341Z,45.58
2022-12-03T05:37:00.345Z,49.03
2022-12-03T05:40:02.341Z,42.60
2022-12-03T05:43:04.395Z,41.97
2022-12-03T05:46:06.499Z,48.22
2022-12-03T05:49:08.614Z,44.63
2022-12-03T05:52:10.686Z,44.72
2022-12-03T05:55:12.980Z,47.78
2022-12-03T05:58:14.964Z,50.13
2022-12-03T06:01:16.994Z,43.67
2022-12-03T06:04:18.953Z,49.35
2022-12-03T06:07:21.040Z,52.58
2022-12-03T06:10:24.532Z,42.47
2022-12-03T06:13:26.514Z,47.88
2022-12-03T06:16:28.586Z,43.25
2022-12-03T06:19:31.415Z,46.45
2022-12-03T06:22:33.528Z,39.25
2022-12-03T06:25:35.559Z,50.35
2022-12-03T06:28:52.702Z,42.97
2022-12-03T06:31:54.771Z,41.83
2022-12-03T06:34:56.850Z,50.20
2022-12-03T06:37:59.012Z,44.38
2022-12-03T06:41:01.021Z,46.47
2022-12-03T06:44:02.992Z,48.83
2022-12-03T06:47:05.039Z,46.45
2022-12-03T06:50:07.696Z,42.78
2022-12-03T06:53:09.705Z,51.28
2022-12-03T06:56:11.692Z,49.00
2022-12-03T06:59:13.866Z,48.38
2022-12-03T07:02:15.880Z,49.27
2022-12-03T07:05:17.945Z,48.13
2022-12-03T07:08:19.998Z,44.30
2022-12-03T07:11:39.991Z,46.53
2022-12-03T07:14:42.130Z,51.63
2022-12-03T07:17:44.187Z,54.55
2022-12-03T07:20:46.187Z,49.58
2022-12-03T07:23:48.296Z,44.17
2022-12-03T07:26:50.301Z,52.17
2022-12-03T07:29:52.308Z,48.83
2022-12-03T07:32:54.617Z,41.87
2022-12-03T07:35:56.602Z,51.65
2022-12-03T07:38:59.994Z,49.90
2022-12-03T07:42:02.224Z,44.00
2022-12-03T07:45:04.748Z,48.88
2022-12-03T07:48:06.792Z,48.50
2022-12-03T07:51:14.233Z,47.67
2022-12-03T07:54:17.281Z,45.83
2022-12-03T07:57:19.237Z,44.15
2022-12-03T08:00:21.425Z,44.95
2022-12-03T08:03:23.445Z,45.23
2022-12-03T08:06:26.170Z,48.90
2022-12-03T08:09:28.173Z,41.70
2022-12-03T08:12:42.280Z,45.77
2022-12-03T08:15:44.821Z,40.45
2022-12-03T08:18:47.462Z,43.13
2022-12-03T08:21:49.601Z,50.28
2022-12-03T08:24:51.904Z,40.45
2022-12-03T08:27:55.787Z,44.38
2022-12-03T08:31:13.139Z,50.47
2022-12-03T08:34:15.175Z,44.37
2022-12-03T08:37:18.425Z,41.13
2022-12-03T08:40:23.092Z,40.08
2022-12-03T08:43:26.288Z,45.00
2022-12-03T08:46:28.348Z,39.00
2022-12-03T08:49:30.373Z,43.97
2022-12-03T08:52:33.308Z,40.92
2022-12-03T08:55:36.910Z,50.22
2022-12-03T08:58:40.664Z,40.83
2022-12-03T09:01:43.907Z,37.47
2022-12-03T09:04:46.257Z,41.47
2022-12-03T09:07:48.346Z,38.17
2022-12-03T09:10:50.474Z,45.65
2022-12-03T09:13:53.007Z,45.67
2022-12-03T09:16:56.158Z,42.50
2022-12-03T09:19:58.344Z,50.22
2022-12-03T09:23:00.482Z,41.55
2022-12-03T09:26:02.501Z,44.72
2022-12-03T09:29:10.432Z,46.53
2022-12-03T09:32:18.278Z,41.78
2022-12-03T09:35:21.044Z,38.70
2022-12-03T09:38:23.080Z,42.38
2022-12-03T09:41:25.498Z,41.57
2022-12-03T09:44:32.519Z,42.70
2022-12-03T09:47:34.563Z,38.92
2022-12-03T09:50:38.300Z,37.78
2022-12-03T09:53:41.458Z,42.60
2022-12-03T09:56:43.605Z,42.58
2022-12-03T09:59:45.804Z,39.00
2022-12-03T10:02:48.746Z,36.80
2022-12-03T10:05:51.134Z,39.67
2022-12-03T10:08:54.608Z,39.80
2022-12-03T10:11:57.407Z,38.22
2022-12-03T10:14:59.466Z,38.97
2022-12-03T10:18:09.472Z,37.40
2022-12-03T10:21:18.156Z,42.13
2022-12-03T10:24:21.904Z,40.58
2022-12-03T10:27:30.687Z,37.22
2022-12-03T10:30:32.937Z,45.05
2022-12-03T10:33:45.456Z,36.13
2022-12-03T10:36:47.473Z,37.23
2022-12-03T10:39:56.249Z,43.58
2022-12-03T10:43:17.308Z,32.05
2022-12-03T10:46:23.164Z,32.90
2022-12-03T10:49:25.292Z,35.87
2022-12-03T10:52:27.359Z,44.10
2022-12-03T10:55:32.968Z,38.67
2022-12-03T10:58:36.370Z,37.58
2022-12-03T11:01:38.465Z,34.28
2022-12-03T11:04:41.539Z,37.10
2022-12-03T11:07:44.417Z,40.87
2022-12-03T11:10:55.957Z,34.30
2022-12-03T11:14:02.073Z,35.97
2022-12-03T11:17:07.825Z,31.58
2022-12-03T11:20:24.844Z,36.03
2022-12-03T11:23:45.036Z,47.60
2022-12-03T11:27:06.958Z,37.72
2022-12-03T11:30:10.559Z,36.53
2022-12-03T11:33:22.170Z,34.35
2022-12-03T11:36:47.631Z,32.17
2022-12-03T11:39:51.498Z,32.42
2022-12-03T11:42:53.625Z,34.30
2022-12-03T11:45:59.697Z,33.40
2022-12-03T11:49:22.044Z,32.35
2022-12-03T11:52:26.018Z,32.50
2022-12-03T11:55:33.152Z,30.10
2022-12-03T11:58:35.922Z,29.98
2022-12-03T12:01:39.359Z,33.70
2022-12-03T12:04:46.587Z,34.60
2022-12-03T12:07:48.959Z,33.77
2022-12-03T12:10:50.962Z,32.55
2022-12-03T12:13:54.714Z,34.35
2022-12-03T12:16:58.512Z,34.97
2022-12-03T12:20:19.077Z,31.52
2022-12-03T12:23:23.298Z,33.47
2022-12-03T12:26:25.297Z,31.00
2022-12-03T12:29:27.469Z,33.83
2022-12-03T12:32:30.937Z,37.30
2022-12-03T12:35:33.055Z,34.88
2022-12-03T12:38:35.103Z,31.83
2022-12-03T12:41:37.132Z,34.47
2022-12-03T12:44:39.112Z,36.78
2022-12-03T12:47:47.706Z,37.20
2022-12-03T12:51:00.597Z,37.97
2022-12-03T12:54:02.608Z,35.33
2022-12-03T12:57:10.583Z,39.58
2022-12-03T13:00:22.876Z,37.25
2022-12-03T13:03:29.604Z,34.33
2022-12-03T13:06:32.031Z,38.72
2022-12-03T13:09:34.067Z,37.05
2022-12-03T13:12:36.477Z,39.85
2022-12-03T13:15:58.703Z,40.55
2022-12-03T13:19:01.453Z,40.38
2022-12-03T13:22:12.920Z,40.30
2022-12-03T13:25:59.272Z,41.10
2022-12-03T13:28:58.617Z,34.25
2022-12-03T13:32:05.406Z,36.92
2022-12-03T13:35:12.996Z,39.97
2022-12-03T13:38:16.295Z,37.60
2022-12-03T13:41:39.688Z,42.13
2022-12-03T13:44:44.451Z,37.45
2022-12-03T13:47:47.625Z,37.42
2022-12-03T13:50:50.240Z,40.53
2022-12-03T13:53:52.570Z,56.58
2022-12-03T13:56:54.575Z,46.70
2022-12-03T13:59:57.021Z,53.88
2022-12-03T14:02:59.177Z,53.90
2022-12-03T14:06:01.184Z,54.58
2022-12-03T14:09:03.746Z,50.53
2022-12-03T14:12:24.556Z,48.73
2022-12-03T14:15:26.700Z,49.15
2022-12-03T14:18:28.732Z,52.92
2022-12-03T14:21:30.854Z,57.07
2022-12-03T14:24:32.855Z,50.30
2022-12-03T14:27:34.894Z,54.47
2022-12-03T14:30:36.867Z,57.67
2022-12-03T14:33:38.873Z,62.08
2022-12-03T14:36:40.972Z,62.80
2022-12-03T14:39:43.156Z,56.72
2022-12-03T14:42:45.277Z,53.00
2022-12-03T14:45:47.327Z,55.00
2022-12-03T14:48:49.336Z,53.22
2022-12-03T14:51:51.454Z,56.80
2022-12-03T14:54:53.524Z,66.00
2022-12-03T14:57:55.516Z,61.58
2022-12-03T15:00:57.580Z,61.00
2022-12-03T15:03:59.581Z,59.78
2022-12-03T15:07:01.594Z,61.47
2022-12-03T15:10:03.700Z,64.57
2022-12-03T15:13:05.709Z,66.30
2022-12-03T15:16:08.629Z,75.35
2022-12-03T15:19:10.641Z,63.22
2022-12-03T15:22:12.664Z,65.60
2022-12-03T15:25:14.725Z,67.28
2022-12-03T15:28:16.865Z,81.00
2022-12-03T15:31:18.900Z,89.32
2022-12-03T15:34:23.149Z,88.28
2022-12-03T15:37:27.713Z,98.35
2022-12-03T15:40:29.660Z,97.93
2022-12-03T15:43:31.642Z,88.67
2022-12-03T15:46:33.684Z,94.15
2022-12-03T15:49:35.807Z,85.45
2022-12-03T15:52:37.828Z,62.97
2022-12-03T15:55:39.879Z,73.45
2022-12-03T15:58:41.946Z,64.60
2022-12-03T16:01:43.979Z,65.80
2022-12-03T16:04:45.992Z,53.33
2022-12-03T16:07:48.057Z,65.32
2022-12-03T16:10:50.213Z,61.72
2022-12-03T16:13:52.216Z,59.13
2022-12-03T16:16:55.141Z,66.65
2022-12-03T16:19:57.243Z,66.15
2022-12-03T16:22:59.338Z,67.83
2022-12-03T16:26:01.337Z,68.05
2022-12-03T16:29:03.406Z,61.72
2022-12-03T16:32:05.540Z,67.75
2022-12-03T16:35:07.707Z,70.75
2022-12-03T16:38:09.710Z,70.07
2022-12-03T16:41:11.673Z,76.68
2022-12-03T16:44:30.465Z,83.07
2022-12-03T16:47:34.405Z,85.65
2022-12-03T16:50:37.724Z,82.60
2022-12-03T16:53:39.755Z,96.73
2022-12-03T16:56:41.781Z,109.20
2022-12-03T16:59:43.732Z,105.45
2022-12-03T17:02:45.755Z,81.53
2022-12-03T17:05:47.796Z,75.53
2022-12-03T17:08:50.213Z,77.35
2022-12-03T17:11:52.335Z,69.88
2022-12-03T17:14:54.276Z,77.53
2022-12-03T17:17:56.292Z,76.97
2022-12-03T17:20:58.368Z,75.95
2022-12-03T17:24:00.371Z,75.00
2022-12-03T17:27:02.408Z,69.20
2022-12-03T17:30:05.126Z,72.70
2022-12-03T17:33:07.209Z,81.30
2022-12-03T17:36:09.870Z,82.70
2022-12-03T17:39:11.893Z,88.75
2022-12-03T17:42:13.961Z,87.03
2022-12-03T17:45:16.023Z,135.63
2022-12-03T17:48:18.051Z,136.50
2022-12-03T17:51:21.187Z,84.80
2022-12-03T17:54:23.218Z,74.80
2022-12-03T17:57:25.238Z,73.13
2022-12-03T18:00:27.310Z,77.57
2022-12-03T18:03:29.352Z,81.30
2022-12-03T18:06:31.660Z,84.07
2022-12-03T18:09:33.709Z,83.45
2022-12-03T18:12:35.799Z,84.93
2022-12-03T18:15:37.794Z,79.13
2022-12-03T18:18:39.873Z,92.60
2022-12-03T18:21:41.965Z,82.00
2022-12-03T18:24:46.077Z,88.87
2022-12-03T18:27:50.500Z,100.10
2022-12-03T18:30:53.075Z,102.18
2022-12-03T18:33:55.185Z,98.70
2022-12-03T18:36:57.227Z,78.15
2022-12-03T18:39:59.693Z,81.63
2022-12-03T18:43:01.837Z,78.35
2022-12-03T18:46:07.737Z,82.80
2022-12-03T18:49:14.460Z,92.57
2022-12-03T18:52:18.015Z,86.65
2022-12-03T18:55:20.268Z,94.47
2022-12-03T18:58:22.234Z,76.60
2022-12-03T19:01:24.318Z,77.88
2022-12-03T19:04:26.451Z,84.95
2022-12-03T19:07:28.480Z,76.25
2022-12-03T19:10:30.539Z,81.97
2022-12-03T19:13:32.591Z,72.53
2022-12-03T19:16:35.553Z,75.60
2022-12-03T19:19:37.586Z,68.20
2022-12-03T19:22:39.611Z,74.53
2022-12-03T19:25:41.647Z,71.03
2022-12-03T19:28:43.737Z,74.32
2022-12-03T19:31:45.850Z,71.45
2022-12-03T19:34:48.015Z,73.68
2022-12-03T19:37:50.372Z,69.68
2022-12-03T19:41:18.669Z,74.15
2022-12-03T19:44:20.631Z,66.25
2022-12-03T19:47:24.810Z,74.37
2022-12-03T19:50:26.829Z,66.20
2022-12-03T19:53:29.769Z,68.28
2022-12-03T19:56:31.792Z,69.30
2022-12-03T19:59:33.741Z,69.22
2022-12-03T20:02:35.762Z,69.55
2022-12-03T20:05:38.728Z,76.07
2022-12-03T20:08:40.760Z,65.35
2022-12-03T20:11:44.580Z,68.65
2022-12-03T20:14:46.688Z,72.28
2022-12-03T20:17:48.772Z,70.33
2022-12-03T20:20:50.744Z,65.88
2022-12-03T20:23:53.164Z,58.88
2022-12-03T20:26:55.164Z,70.83
2022-12-03T20:29:57.379Z,77.95
2022-12-03T20:32:59.537Z,76.57
2022-12-03T20:36:01.564Z,83.85
2022-12-03T20:39:05.221Z,70.38
2022-12-03T20:42:08.800Z,66.07
2022-12-03T20:45:10.877Z,62.00
2022-12-03T20:48:12.931Z,61.80
2022-12-03T20:51:16.400Z,61.75
2022-12-03T20:54:18.527Z,69.20
2022-12-03T20:57:20.532Z,69.40
2022-12-03T21:00:22.505Z,67.72
2022-12-03T21:03:24.569Z,61.72
2022-12-03T21:06:28.048Z,67.53
2022-12-03T21:09:30.051Z,67.72
2022-12-03T21:12:32.080Z,72.72
2022-12-03T21:15:34.105Z,67.63
2022-12-03T21:18:36.104Z,73.67
2022-12-03T21:21:38.129Z,74.13
2022-12-03T21:24:42.823Z,79.40
2022-12-03T21:27:44.770Z,73.67
2022-12-03T21:30:46.806Z,67.97
2022-12-03T21:33:48.884Z,67.53
2022-12-03T21:36:50.972Z,62.88
2022-12-03T21:39:53.966Z,69.72
2022-12-03T21:42:56.148Z,67.82
2022-12-03T21:45:58.174Z,66.78
2022-12-03T21:49:00.289Z,68.53
2022-12-03T21:52:02.257Z,67.35
2022-12-03T21:55:04.366Z,65.93
2022-12-03T21:58:07.065Z,75.70
2022-12-03T22:01:12.988Z,67.53
2022-12-03T22:04:15.096Z,63.53
2022-12-03T22:07:17.303Z,61.97
2022-12-03T22:10:19.379Z,62.55
2022-12-03T22:13:21.338Z,66.05
2022-12-03T22:16:23.415Z,70.45
2022-12-03T22:19:25.963Z,67.53
2022-12-03T22:22:27.975Z,70.13
2022-12-03T22:25:30.714Z,63.40
2022-12-03T22:28:33.229Z,68.07
2022-12-03T22:31:35.284Z,66.32
2022-12-03T22:34:38.097Z,70.15
2022-12-03T22:37:40.126Z,66.63
2022-12-03T22:40:42.131Z,64.32
2022-12-03T22:43:44.970Z,60.70
2022-12-03T22:46:47.020Z,61.47
2022-12-03T22:49:49.088Z,68.00
2022-12-03T22:52:51.129Z,59.92
2022-12-03T22:55:56.807Z,67.30
2022-12-03T22:58:58.786Z,63.20
2022-12-03T23:02:00.871Z,64.53
2022-12-03T23:05:02.914Z,72.22
2022-12-03T23:08:09.221Z,69.45
2022-12-03T23:11:11.265Z,68.90
2022-12-03T23:14:13.296Z,70.00
2022-12-03T23:17:15.263Z,65.90
2022-12-03T23:20:17.317Z,68.63
2022-12-03T23:23:20.685Z,79.55
2022-12-03T23:26:22.755Z,68.13
2022-12-03T23:29:24.713Z,70.00
2022-12-03T23:32:26.774Z,73.55
2022-12-03T23:35:28.807Z,72.63
2022-12-03T23:38:30.788Z,65.93
2022-12-03T23:41:32.741Z,74.30
2022-12-03T23:44:34.783Z,77.65
2022-12-03T23:47:36.792Z,66.60
2022-12-03T23:50:39.741Z,76.93
2022-12-03T23:53:41.713Z,80.40
2022-12-03T23:56:43.764Z,78.97
2022-12-03T23:59:45.828Z,68.07
